sensor_id;sensor_type;location;lat;lon;timestamp;pressure;altitude;pressure_sealevel;temperature;humidity
79077;BME280;68477;42.698;23.342;2023-05-29T00:01:12;95180.56;;;14.43;76.78
79077;BME280;68477;42.698;23.342;2023-05-29T00:03:38;95177.56;;;14.52;76.07
79077;BME280;68477;42.698;23.342;2023-05-29T00:06:04;95180.84;;;14.54;76.18
79077;BME280;68477;42.698;23.342;2023-05-29T00:08:31;95181.75;;;14.34;76.68
79077;BME280;68477;42.698;23.342;2023-05-29T00:10:57;95171.16;;;14.34;77.95
79077;BME280;68477;42.698;23.342;2023-05-29T00:13:23;95177.81;;;14.23;78.47
79077;BME280;68477;42.698;23.342;2023-05-29T00:15:48;95183.53;;;13.85;79.34
79077;BME280;68477;42.698;23.342;2023-05-29T00:18:14;95179.06;;;13.92;79.21
79077;BME280;68477;42.698;23.342;2023-05-29T00:20:39;95180.00;;;13.78;79.46
79077;BME280;68477;42.698;23.342;2023-05-29T00:23:05;95177.50;;;13.70;79.97
79077;BME280;68477;42.698;23.342;2023-05-29T00:25:32;95184.47;;;13.71;79.86
79077;BME280;68477;42.698;23.342;2023-05-29T00:27:58;95189.81;;;13.84;79.14
79077;BME280;68477;42.698;23.342;2023-05-29T00:30:23;95186.25;;;13.98;78.40
79077;BME280;68477;42.698;23.342;2023-05-29T00:32:49;95189.28;;;13.95;78.72
79077;BME280;68477;42.698;23.342;2023-05-29T00:35:15;95170.50;;;13.84;79.08
79077;BME280;68477;42.698;23.342;2023-05-29T00:37:40;95176.34;;;13.79;79.74
79077;BME280;68477;42.698;23.342;2023-05-29T00:40:06;95175.25;;;13.95;78.54
79077;BME280;68477;42.698;23.342;2023-05-29T00:42:32;95172.81;;;14.00;77.99
79077;BME280;68477;42.698;23.342;2023-05-29T00:44:57;95175.63;;;13.92;78.67
79077;BME280;68477;42.698;23.342;2023-05-29T00:47:23;95178.66;;;13.89;79.03
79077;BME280;68477;42.698;23.342;2023-05-29T00:49:49;95175.44;;;13.93;79.06
79077;BME280;68477;42.698;23.342;2023-05-29T00:52:18;95176.00;;;13.89;79.26
79077;BME280;68477;42.698;23.342;2023-05-29T00:54:45;95175.00;;;13.90;79.21
79077;BME280;68477;42.698;23.342;2023-05-29T00:57:12;95178.34;;;13.71;79.83
79077;BME280;68477;42.698;23.342;2023-05-29T00:59:39;95164.28;;;13.70;79.81
79077;BME280;68477;42.698;23.342;2023-05-29T01:02:05;95170.59;;;13.69;79.49
79077;BME280;68477;42.698;23.342;2023-05-29T01:04:31;95173.44;;;13.67;79.57
79077;BME280;68477;42.698;23.342;2023-05-29T01:07:02;95176.81;;;13.55;81.06
79077;BME280;68477;42.698;23.342;2023-05-29T01:09:29;95173.25;;;13.41;81.50
79077;BME280;68477;42.698;23.342;2023-05-29T01:20:48;95171.22;;;13.00;83.49
79077;BME280;68477;42.698;23.342;2023-05-29T01:23:28;95174.56;;;12.88;83.74
79077;BME280;68477;42.698;23.342;2023-05-29T01:29:04;95178.78;;;13.25;81.99
79077;BME280;68477;42.698;23.342;2023-05-29T01:31:32;95178.78;;;13.25;82.32
79077;BME280;68477;42.698;23.342;2023-05-29T01:33:59;95174.78;;;13.29;81.74
79077;BME280;68477;42.698;23.342;2023-05-29T01:36:26;95177.75;;;13.47;81.12
79077;BME280;68477;42.698;23.342;2023-05-29T01:38:53;95168.59;;;13.43;81.02
79077;BME280;68477;42.698;23.342;2023-05-29T01:41:21;95172.47;;;13.47;81.05
79077;BME280;68477;42.698;23.342;2023-05-29T01:43:48;95172.47;;;13.47;81.05
79077;BME280;68477;42.698;23.342;2023-05-29T01:46:14;95171.66;;;13.47;81.00
79077;BME280;68477;42.698;23.342;2023-05-29T01:48:41;95173.84;;;13.36;81.54
79077;BME280;68477;42.698;23.342;2023-05-29T01:51:07;95178.09;;;13.37;81.27
79077;BME280;68477;42.698;23.342;2023-05-29T01:53:33;95170.22;;;13.44;81.29
79077;BME280;68477;42.698;23.342;2023-05-29T01:55:59;95164.38;;;13.49;80.80
79077;BME280;68477;42.698;23.342;2023-05-29T01:58:25;95161.56;;;13.29;81.70
79077;BME280;68477;42.698;23.342;2023-05-29T02:00:51;95156.09;;;13.09;82.72
79077;BME280;68477;42.698;23.342;2023-05-29T02:03:17;95163.00;;;13.10;82.52
79077;BME280;68477;42.698;23.342;2023-05-29T02:05:43;95159.13;;;12.85;83.79
79077;BME280;68477;42.698;23.342;2023-05-29T02:08:08;95165.94;;;12.79;83.82
79077;BME280;68477;42.698;23.342;2023-05-29T02:10:34;95159.03;;;12.99;82.62
79077;BME280;68477;42.698;23.342;2023-05-29T02:12:59;95164.91;;;13.16;82.08
79077;BME280;68477;42.698;23.342;2023-05-29T02:15:24;95157.47;;;13.05;82.22
79077;BME280;68477;42.698;23.342;2023-05-29T02:17:50;95159.00;;;13.14;81.92
79077;BME280;68477;42.698;23.342;2023-05-29T02:20:15;95161.94;;;13.04;82.40
79077;BME280;68477;42.698;23.342;2023-05-29T02:22:41;95160.50;;;12.80;83.76
79077;BME280;68477;42.698;23.342;2023-05-29T02:25:07;95161.25;;;12.96;83.09
79077;BME280;68477;42.698;23.342;2023-05-29T02:27:34;95161.97;;;12.68;83.74
79077;BME280;68477;42.698;23.342;2023-05-29T02:29:59;95158.19;;;12.92;82.94
79077;BME280;68477;42.698;23.342;2023-05-29T02:32:25;95166.41;;;13.04;82.18
79077;BME280;68477;42.698;23.342;2023-05-29T02:34:53;95165.25;;;13.13;81.72
79077;BME280;68477;42.698;23.342;2023-05-29T02:37:18;95170.41;;;13.00;82.16
79077;BME280;68477;42.698;23.342;2023-05-29T02:39:43;95170.22;;;13.01;82.22
79077;BME280;68477;42.698;23.342;2023-05-29T02:42:09;95170.72;;;13.11;81.78
79077;BME280;68477;42.698;23.342;2023-05-29T02:44:34;95172.81;;;13.16;81.35
79077;BME280;68477;42.698;23.342;2023-05-29T02:47:00;95177.22;;;13.09;81.68
79077;BME280;68477;42.698;23.342;2023-05-29T02:49:26;95175.50;;;13.01;82.24
79077;BME280;68477;42.698;23.342;2023-05-29T02:51:51;95165.44;;;12.90;82.65
79077;BME280;68477;42.698;23.342;2023-05-29T02:54:21;95165.00;;;12.87;82.83
79077;BME280;68477;42.698;23.342;2023-05-29T02:56:49;95160.63;;;12.94;82.46
79077;BME280;68477;42.698;23.342;2023-05-29T02:59:15;95162.50;;;13.00;82.45
79077;BME280;68477;42.698;23.342;2023-05-29T03:01:41;95167.16;;;12.98;82.44
79077;BME280;68477;42.698;23.342;2023-05-29T03:04:06;95166.44;;;12.89;83.37
79077;BME280;68477;42.698;23.342;2023-05-29T03:06:32;95167.59;;;13.01;82.75
79077;BME280;68477;42.698;23.342;2023-05-29T03:08:57;95167.28;;;13.11;82.33
79077;BME280;68477;42.698;23.342;2023-05-29T03:11:24;95169.00;;;13.19;82.04
79077;BME280;68477;42.698;23.342;2023-05-29T03:13:50;95172.00;;;13.16;82.30
79077;BME280;68477;42.698;23.342;2023-05-29T03:16:15;95180.97;;;13.00;83.04
79077;BME280;68477;42.698;23.342;2023-05-29T03:18:41;95170.38;;;13.15;82.52
79077;BME280;68477;42.698;23.342;2023-05-29T03:21:07;95171.81;;;13.17;83.00
79077;BME280;68477;42.698;23.342;2023-05-29T03:23:33;95175.81;;;13.13;82.90
79077;BME280;68477;42.698;23.342;2023-05-29T03:25:58;95182.69;;;13.07;83.00
79077;BME280;68477;42.698;23.342;2023-05-29T03:28:24;95183.69;;;13.06;83.07
79077;BME280;68477;42.698;23.342;2023-05-29T03:30:50;95177.00;;;13.25;82.87
79077;BME280;68477;42.698;23.342;2023-05-29T03:33:17;95188.09;;;13.21;81.87
79077;BME280;68477;42.698;23.342;2023-05-29T03:35:42;95191.66;;;13.13;82.93
79077;BME280;68477;42.698;23.342;2023-05-29T03:38:09;95190.44;;;13.30;82.55
79077;BME280;68477;42.698;23.342;2023-05-29T03:40:34;95197.34;;;13.31;82.59
79077;BME280;68477;42.698;23.342;2023-05-29T03:43:00;95195.19;;;13.42;82.76
79077;BME280;68477;42.698;23.342;2023-05-29T03:45:25;95199.41;;;13.36;83.25
79077;BME280;68477;42.698;23.342;2023-05-29T03:47:51;95206.78;;;13.40;83.08
79077;BME280;68477;42.698;23.342;2023-05-29T03:50:16;95196.69;;;13.51;82.88
79077;BME280;68477;42.698;23.342;2023-05-29T03:52:42;95198.91;;;13.75;81.42
79077;BME280;68477;42.698;23.342;2023-05-29T03:55:10;95196.75;;;13.85;81.06
79077;BME280;68477;42.698;23.342;2023-05-29T03:57:40;95206.50;;;13.85;81.21
79077;BME280;68477;42.698;23.342;2023-05-29T04:00:10;95204.34;;;13.95;81.54
79077;BME280;68477;42.698;23.342;2023-05-29T04:02:38;95209.38;;;13.90;80.61
79077;BME280;68477;42.698;23.342;2023-05-29T04:05:07;95209.41;;;13.96;80.93
79077;BME280;68477;42.698;23.342;2023-05-29T04:07:35;95220.13;;;13.88;81.68
79077;BME280;68477;42.698;23.342;2023-05-29T04:10:02;95221.38;;;13.92;80.96
79077;BME280;68477;42.698;23.342;2023-05-29T04:12:28;95225.84;;;13.92;82.20
79077;BME280;68477;42.698;23.342;2023-05-29T04:14:53;95234.97;;;13.83;81.77
79077;BME280;68477;42.698;23.342;2023-05-29T04:17:19;95221.84;;;14.03;81.57
79077;BME280;68477;42.698;23.342;2023-05-29T04:19:44;95221.50;;;14.06;80.01
79077;BME280;68477;42.698;23.342;2023-05-29T04:22:10;95222.78;;;14.16;79.94
79077;BME280;68477;42.698;23.342;2023-05-29T04:24:36;95230.78;;;14.30;79.42
79077;BME280;68477;42.698;23.342;2023-05-29T04:27:01;95228.22;;;14.15;80.58
79077;BME280;68477;42.698;23.342;2023-05-29T04:29:28;95220.59;;;14.33;79.66
79077;BME280;68477;42.698;23.342;2023-05-29T04:31:53;95231.28;;;14.46;78.78
79077;BME280;68477;42.698;23.342;2023-05-29T04:34:20;95229.81;;;14.44;78.92
79077;BME280;68477;42.698;23.342;2023-05-29T04:36:47;95231.28;;;14.46;79.35
79077;BME280;68477;42.698;23.342;2023-05-29T04:39:12;95231.03;;;14.41;79.40
79077;BME280;68477;42.698;23.342;2023-05-29T04:41:42;95235.25;;;14.29;79.53
79077;BME280;68477;42.698;23.342;2023-05-29T04:44:07;95230.53;;;14.24;78.69
79077;BME280;68477;42.698;23.342;2023-05-29T04:46:35;95241.09;;;14.24;78.58
79077;BME280;68477;42.698;23.342;2023-05-29T04:49:00;95243.81;;;14.38;77.37
79077;BME280;68477;42.698;23.342;2023-05-29T04:51:29;95242.69;;;14.47;78.52
79077;BME280;68477;42.698;23.342;2023-05-29T04:53:55;95239.53;;;14.37;78.07
79077;BME280;68477;42.698;23.342;2023-05-29T04:56:22;95238.00;;;14.49;78.50
79077;BME280;68477;42.698;23.342;2023-05-29T04:58:47;95252.31;;;14.54;78.43
79077;BME280;68477;42.698;23.342;2023-05-29T05:01:13;95248.22;;;14.59;78.24
79077;BME280;68477;42.698;23.342;2023-05-29T05:03:42;95254.03;;;14.75;77.23
79077;BME280;68477;42.698;23.342;2023-05-29T05:06:09;95258.22;;;14.56;77.79
79077;BME280;68477;42.698;23.342;2023-05-29T05:08:35;95263.69;;;14.55;77.97
79077;BME280;68477;42.698;23.342;2023-05-29T05:11:01;95263.75;;;14.62;78.29
79077;BME280;68477;42.698;23.342;2023-05-29T05:13:27;95265.19;;;14.64;77.11
79077;BME280;68477;42.698;23.342;2023-05-29T05:15:53;95267.00;;;14.64;77.74
79077;BME280;68477;42.698;23.342;2023-05-29T05:18:18;95270.88;;;14.68;78.53
79077;BME280;68477;42.698;23.342;2023-05-29T05:20:44;95274.00;;;14.78;78.03
79077;BME280;68477;42.698;23.342;2023-05-29T05:23:10;95271.78;;;14.88;77.25
79077;BME280;68477;42.698;23.342;2023-05-29T05:25:36;95269.59;;;14.98;76.30
79077;BME280;68477;42.698;23.342;2023-05-29T05:28:02;95272.69;;;15.08;75.84
79077;BME280;68477;42.698;23.342;2023-05-29T05:30:31;95271.22;;;15.06;76.01
79077;BME280;68477;42.698;23.342;2023-05-29T05:32:59;95275.09;;;15.03;76.42
79077;BME280;68477;42.698;23.342;2023-05-29T05:35:26;95276.56;;;15.12;75.34
79077;BME280;68477;42.698;23.342;2023-05-29T05:37:51;95272.72;;;15.22;75.55
79077;BME280;68477;42.698;23.342;2023-05-29T05:40:17;95282.53;;;15.41;75.08
79077;BME280;68477;42.698;23.342;2023-05-29T05:42:43;95273.34;;;15.50;75.03
79077;BME280;68477;42.698;23.342;2023-05-29T05:45:09;95270.38;;;15.66;73.38
79077;BME280;68477;42.698;23.342;2023-05-29T05:47:34;95271.78;;;15.82;73.62
79077;BME280;68477;42.698;23.342;2023-05-29T05:50:00;95273.84;;;16.00;72.71
79077;BME280;68477;42.698;23.342;2023-05-29T05:52:25;95271.97;;;16.14;72.06
79077;BME280;68477;42.698;23.342;2023-05-29T05:54:55;95271.31;;;16.45;70.94
79077;BME280;68477;42.698;23.342;2023-05-29T05:57:21;95277.16;;;16.80;70.60
79077;BME280;68477;42.698;23.342;2023-05-29T05:59:46;95279.56;;;16.95;69.66
79077;BME280;68477;42.698;23.342;2023-05-29T06:02:11;95275.13;;;17.20;69.29
79077;BME280;68477;42.698;23.342;2023-05-29T06:04:37;95268.47;;;17.04;67.91
79077;BME280;68477;42.698;23.342;2023-05-29T06:07:02;95269.59;;;16.83;68.71
79077;BME280;68477;42.698;23.342;2023-05-29T06:09:28;95270.41;;;16.84;69.26
79077;BME280;68477;42.698;23.342;2023-05-29T06:11:54;95267.97;;;16.76;70.41
79077;BME280;68477;42.698;23.342;2023-05-29T06:14:20;95269.38;;;16.85;69.54
79077;BME280;68477;42.698;23.342;2023-05-29T06:16:47;95278.06;;;17.05;68.56
79077;BME280;68477;42.698;23.342;2023-05-29T06:19:12;95278.59;;;17.21;67.86
79077;BME280;68477;42.698;23.342;2023-05-29T06:21:39;95274.31;;;17.20;68.97
79077;BME280;68477;42.698;23.342;2023-05-29T06:24:05;95289.72;;;17.11;67.83
79077;BME280;68477;42.698;23.342;2023-05-29T06:26:30;95285.81;;;17.13;67.51
79077;BME280;68477;42.698;23.342;2023-05-29T06:28:56;95283.66;;;17.67;67.46
79077;BME280;68477;42.698;23.342;2023-05-29T06:31:21;95276.09;;;17.95;65.05
79077;BME280;68477;42.698;23.342;2023-05-29T06:33:47;95278.66;;;18.09;64.61
79077;BME280;68477;42.698;23.342;2023-05-29T06:36:12;95272.47;;;18.15;64.11
79077;BME280;68477;42.698;23.342;2023-05-29T06:38:38;95280.00;;;18.18;64.59
79077;BME280;68477;42.698;23.342;2023-05-29T06:41:04;95281.81;;;18.42;64.14
79077;BME280;68477;42.698;23.342;2023-05-29T06:43:29;95276.06;;;18.63;62.68
79077;BME280;68477;42.698;23.342;2023-05-29T06:45:54;95272.66;;;18.56;63.67
79077;BME280;68477;42.698;23.342;2023-05-29T06:48:20;95280.34;;;18.71;64.10
79077;BME280;68477;42.698;23.342;2023-05-29T06:50:47;95279.94;;;18.86;63.61
79077;BME280;68477;42.698;23.342;2023-05-29T06:53:12;95276.34;;;18.80;63.13
79077;BME280;68477;42.698;23.342;2023-05-29T06:55:38;95279.28;;;18.72;62.32
79077;BME280;68477;42.698;23.342;2023-05-29T06:58:05;95272.63;;;18.81;62.91
79077;BME280;68477;42.698;23.342;2023-05-29T07:00:31;95274.47;;;18.99;62.22
79077;BME280;68477;42.698;23.342;2023-05-29T07:02:56;95279.78;;;18.99;63.25
79077;BME280;68477;42.698;23.342;2023-05-29T07:05:22;95275.59;;;19.22;61.42
79077;BME280;68477;42.698;23.342;2023-05-29T07:07:47;95277.91;;;19.18;61.41
79077;BME280;68477;42.698;23.342;2023-05-29T07:10:13;95276.00;;;19.07;62.36
79077;BME280;68477;42.698;23.342;2023-05-29T07:12:38;95272.19;;;19.33;61.63
79077;BME280;68477;42.698;23.342;2023-05-29T07:15:04;95277.84;;;19.85;60.10
79077;BME280;68477;42.698;23.342;2023-05-29T07:17:30;95282.13;;;19.26;61.39
79077;BME280;68477;42.698;23.342;2023-05-29T07:19:55;95277.72;;;19.01;61.77
79077;BME280;68477;42.698;23.342;2023-05-29T07:22:20;95281.13;;;18.90;62.02
79077;BME280;68477;42.698;23.342;2023-05-29T07:24:46;95274.09;;;18.96;62.25
79077;BME280;68477;42.698;23.342;2023-05-29T07:27:11;95279.28;;;18.90;63.01
79077;BME280;68477;42.698;23.342;2023-05-29T07:29:37;95279.66;;;18.76;62.74
79077;BME280;68477;42.698;23.342;2023-05-29T07:32:02;95279.84;;;19.11;63.36
79077;BME280;68477;42.698;23.342;2023-05-29T07:34:28;95279.50;;;19.07;61.88
79077;BME280;68477;42.698;23.342;2023-05-29T07:37:03;95278.16;;;19.16;62.35
79077;BME280;68477;42.698;23.342;2023-05-29T07:39:30;95268.84;;;19.37;60.61
79077;BME280;68477;42.698;23.342;2023-05-29T07:41:57;95281.81;;;19.04;60.86
79077;BME280;68477;42.698;23.342;2023-05-29T07:44:23;95275.22;;;18.88;60.86
79077;BME280;68477;42.698;23.342;2023-05-29T07:46:48;95273.41;;;18.63;62.28
79077;BME280;68477;42.698;23.342;2023-05-29T07:49:14;95279.19;;;19.15;62.71
79077;BME280;68477;42.698;23.342;2023-05-29T07:51:40;95279.22;;;19.87;59.74
79077;BME280;68477;42.698;23.342;2023-05-29T07:54:06;95272.53;;;20.20;57.97
79077;BME280;68477;42.698;23.342;2023-05-29T07:56:31;95267.44;;;20.42;56.89
79077;BME280;68477;42.698;23.342;2023-05-29T07:58:59;95267.28;;;20.25;56.21
79077;BME280;68477;42.698;23.342;2023-05-29T08:01:24;95280.66;;;20.72;55.69
79077;BME280;68477;42.698;23.342;2023-05-29T08:03:52;95272.06;;;20.70;55.87
79077;BME280;68477;42.698;23.342;2023-05-29T08:06:18;95278.03;;;21.12;54.49
79077;BME280;68477;42.698;23.342;2023-05-29T08:08:44;95280.56;;;21.30;55.69
79077;BME280;68477;42.698;23.342;2023-05-29T08:11:10;95277.91;;;21.30;53.54
79077;BME280;68477;42.698;23.342;2023-05-29T08:13:36;95277.25;;;21.00;54.18
79077;BME280;68477;42.698;23.342;2023-05-29T08:16:01;95276.72;;;21.26;56.99
79077;BME280;68477;42.698;23.342;2023-05-29T08:18:29;95277.09;;;21.18;54.88
79077;BME280;68477;42.698;23.342;2023-05-29T08:20:55;95282.41;;;21.58;54.31
79077;BME280;68477;42.698;23.342;2023-05-29T08:23:21;95277.38;;;21.62;53.61
79077;BME280;68477;42.698;23.342;2023-05-29T08:25:46;95284.84;;;21.88;52.92
79077;BME280;68477;42.698;23.342;2023-05-29T08:28:13;95275.31;;;21.64;52.82
79077;BME280;68477;42.698;23.342;2023-05-29T08:30:39;95278.31;;;22.13;51.97
79077;BME280;68477;42.698;23.342;2023-05-29T08:33:05;95280.59;;;21.75;51.98
79077;BME280;68477;42.698;23.342;2023-05-29T08:35:30;95278.47;;;21.32;52.87
79077;BME280;68477;42.698;23.342;2023-05-29T08:37:56;95287.78;;;21.18;54.26
79077;BME280;68477;42.698;23.342;2023-05-29T08:40:21;95282.16;;;20.79;51.60
79077;BME280;68477;42.698;23.342;2023-05-29T08:42:51;95271.00;;;20.82;54.64
79077;BME280;68477;42.698;23.342;2023-05-29T08:45:18;95278.06;;;21.00;51.77
79077;BME280;68477;42.698;23.342;2023-05-29T08:47:46;95271.38;;;21.14;51.25
79077;BME280;68477;42.698;23.342;2023-05-29T08:50:15;95266.25;;;21.25;49.11
79077;BME280;68477;42.698;23.342;2023-05-29T08:52:41;95266.03;;;21.14;50.16
79077;BME280;68477;42.698;23.342;2023-05-29T08:55:07;95267.28;;;20.72;52.52
79077;BME280;68477;42.698;23.342;2023-05-29T08:57:34;95260.03;;;20.44;51.89
79077;BME280;68477;42.698;23.342;2023-05-29T09:00:01;95252.09;;;20.25;52.81
79077;BME280;68477;42.698;23.342;2023-05-29T09:02:30;95254.06;;;20.30;52.65
79077;BME280;68477;42.698;23.342;2023-05-29T09:04:56;95251.78;;;21.09;52.16
79077;BME280;68477;42.698;23.342;2023-05-29T09:07:22;95248.63;;;21.40;50.19
79077;BME280;68477;42.698;23.342;2023-05-29T09:09:48;95245.19;;;21.28;50.74
79077;BME280;68477;42.698;23.342;2023-05-29T09:12:14;95243.28;;;21.40;50.64
79077;BME280;68477;42.698;23.342;2023-05-29T09:14:42;95240.22;;;21.20;49.20
79077;BME280;68477;42.698;23.342;2023-05-29T09:17:09;95244.31;;;21.11;49.24
79077;BME280;68477;42.698;23.342;2023-05-29T09:19:35;95242.81;;;20.63;49.76
79077;BME280;68477;42.698;23.342;2023-05-29T09:22:05;95230.72;;;20.60;52.04
79077;BME280;68477;42.698;23.342;2023-05-29T09:24:34;95234.19;;;20.61;52.12
79077;BME280;68477;42.698;23.342;2023-05-29T09:27:02;95227.81;;;20.74;50.42
79077;BME280;68477;42.698;23.342;2023-05-29T09:29:33;95228.50;;;20.69;51.06
79077;BME280;68477;42.698;23.342;2023-05-29T09:32:00;95220.00;;;20.72;51.28
79077;BME280;68477;42.698;23.342;2023-05-29T09:34:26;95222.47;;;20.62;51.58
79077;BME280;68477;42.698;23.342;2023-05-29T09:37:04;95220.75;;;21.36;51.21
79077;BME280;68477;42.698;23.342;2023-05-29T09:39:45;95218.47;;;22.07;48.40
79077;BME280;68477;42.698;23.342;2023-05-29T09:42:16;95218.34;;;22.35;46.69
79077;BME280;68477;42.698;23.342;2023-05-29T09:44:45;95199.94;;;22.83;46.28
79077;BME280;68477;42.698;23.342;2023-05-29T09:47:16;95206.88;;;22.40;45.96
79077;BME280;68477;42.698;23.342;2023-05-29T09:49:42;95203.28;;;21.79;47.73
79077;BME280;68477;42.698;23.342;2023-05-29T09:52:15;95205.78;;;22.19;49.67
79077;BME280;68477;42.698;23.342;2023-05-29T09:54:45;95202.06;;;22.81;47.22
79077;BME280;68477;42.698;23.342;2023-05-29T09:57:13;95202.84;;;22.37;46.18
79077;BME280;68477;42.698;23.342;2023-05-29T09:59:41;95198.44;;;22.48;46.79
79077;BME280;68477;42.698;23.342;2023-05-29T10:02:09;95193.75;;;22.82;44.58
79077;BME280;68477;42.698;23.342;2023-05-29T10:04:37;95189.19;;;23.00;45.04
79077;BME280;68477;42.698;23.342;2023-05-29T10:07:10;95193.75;;;23.26;45.19
79077;BME280;68477;42.698;23.342;2023-05-29T10:09:42;95188.09;;;23.54;45.87
79077;BME280;68477;42.698;23.342;2023-05-29T10:12:11;95189.28;;;23.64;42.88
79077;BME280;68477;42.698;23.342;2023-05-29T10:14:37;95177.88;;;23.78;42.49
79077;BME280;68477;42.698;23.342;2023-05-29T10:17:07;95192.78;;;23.37;44.49
79077;BME280;68477;42.698;23.342;2023-05-29T10:19:36;95188.88;;;23.77;45.15
79077;BME280;68477;42.698;23.342;2023-05-29T10:22:02;95195.25;;;24.40;42.96
79077;BME280;68477;42.698;23.342;2023-05-29T10:24:29;95198.94;;;24.76;42.06
79077;BME280;68477;42.698;23.342;2023-05-29T10:26:56;95192.75;;;24.76;40.46
79077;BME280;68477;42.698;23.342;2023-05-29T10:29:45;95185.72;;;24.64;41.54
79077;BME280;68477;42.698;23.342;2023-05-29T10:35:16;95178.72;;;23.84;41.30
79077;BME280;68477;42.698;23.342;2023-05-29T10:37:49;95181.91;;;23.54;41.85
79077;BME280;68477;42.698;23.342;2023-05-29T10:40:22;95177.13;;;23.29;44.40
79077;BME280;68477;42.698;23.342;2023-05-29T10:42:49;95178.19;;;23.28;44.55
79077;BME280;68477;42.698;23.342;2023-05-29T10:47:56;95188.34;;;22.55;45.49
79077;BME280;68477;42.698;23.342;2023-05-29T10:50:46;95176.81;;;22.16;45.52
79077;BME280;68477;42.698;23.342;2023-05-29T10:53:23;95162.13;;;22.02;46.85
79077;BME280;68477;42.698;23.342;2023-05-29T10:55:51;95173.19;;;22.44;45.30
79077;BME280;68477;42.698;23.342;2023-05-29T11:00:46;95156.41;;;23.51;43.35
79077;BME280;68477;42.698;23.342;2023-05-29T11:03:15;95158.66;;;23.97;44.42
79077;BME280;68477;42.698;23.342;2023-05-29T11:06:21;95154.63;;;23.94;42.35
79077;BME280;68477;42.698;23.342;2023-05-29T11:08:55;95150.78;;;23.85;40.01
79077;BME280;68477;42.698;23.342;2023-05-29T11:13:53;95144.44;;;24.38;42.17
79077;BME280;68477;42.698;23.342;2023-05-29T11:16:20;95143.81;;;23.84;41.29
79077;BME280;68477;42.698;23.342;2023-05-29T11:19:07;95140.34;;;23.89;42.34
79077;BME280;68477;42.698;23.342;2023-05-29T11:24:27;95140.22;;;23.73;41.63
79077;BME280;68477;42.698;23.342;2023-05-29T11:26:56;95139.88;;;23.65;41.11
79077;BME280;68477;42.698;23.342;2023-05-29T11:29:27;95137.47;;;23.36;42.07
79077;BME280;68477;42.698;23.342;2023-05-29T11:32:06;95139.34;;;24.00;40.13
79077;BME280;68477;42.698;23.342;2023-05-29T11:34:38;95139.41;;;23.68;41.93
79077;BME280;68477;42.698;23.342;2023-05-29T11:37:04;95134.34;;;23.44;40.94
79077;BME280;68477;42.698;23.342;2023-05-29T11:39:30;95132.56;;;24.34;37.16
79077;BME280;68477;42.698;23.342;2023-05-29T11:42:00;95130.69;;;24.35;38.18
79077;BME280;68477;42.698;23.342;2023-05-29T11:44:26;95126.63;;;24.27;36.82
79077;BME280;68477;42.698;23.342;2023-05-29T11:47:05;95121.63;;;23.67;39.65
79077;BME280;68477;42.698;23.342;2023-05-29T11:49:33;95133.09;;;23.57;40.18
79077;BME280;68477;42.698;23.342;2023-05-29T11:52:13;95133.00;;;22.88;42.74
79077;BME280;68477;42.698;23.342;2023-05-29T11:54:42;95128.34;;;22.61;42.30
79077;BME280;68477;42.698;23.342;2023-05-29T11:57:17;95133.31;;;22.97;42.05
79077;BME280;68477;42.698;23.342;2023-05-29T11:59:43;95127.84;;;23.40;41.32
79077;BME280;68477;42.698;23.342;2023-05-29T12:02:09;95126.16;;;22.36;45.61
79077;BME280;68477;42.698;23.342;2023-05-29T12:04:35;95130.34;;;22.27;48.15
79077;BME280;68477;42.698;23.342;2023-05-29T12:07:00;95133.72;;;21.84;50.22
79077;BME280;68477;42.698;23.342;2023-05-29T12:09:26;95150.47;;;21.41;51.54
79077;BME280;68477;42.698;23.342;2023-05-29T12:11:54;95165.00;;;21.05;52.05
79077;BME280;68477;42.698;23.342;2023-05-29T12:14:20;95168.19;;;20.73;59.00
79077;BME280;68477;42.698;23.342;2023-05-29T12:16:45;95178.00;;;20.32;63.09
79077;BME280;68477;42.698;23.342;2023-05-29T12:19:11;95178.53;;;19.53;68.85
79077;BME280;68477;42.698;23.342;2023-05-29T12:21:41;95175.91;;;19.23;70.27
79077;BME280;68477;42.698;23.342;2023-05-29T12:24:07;95187.34;;;19.11;71.30
79077;BME280;68477;42.698;23.342;2023-05-29T12:26:33;95182.06;;;18.93;72.77
79077;BME280;68477;42.698;23.342;2023-05-29T12:29:02;95179.84;;;18.90;73.20
79077;BME280;68477;42.698;23.342;2023-05-29T12:31:28;95187.66;;;18.73;73.29
79077;BME280;68477;42.698;23.342;2023-05-29T12:33:59;95186.31;;;18.27;71.23
79077;BME280;68477;42.698;23.342;2023-05-29T12:36:25;95183.66;;;18.27;73.43
79077;BME280;68477;42.698;23.342;2023-05-29T12:38:51;95180.47;;;18.19;70.35
79077;BME280;68477;42.698;23.342;2023-05-29T12:41:28;95185.72;;;18.44;72.85
79077;BME280;68477;42.698;23.342;2023-05-29T12:43:57;95184.75;;;18.56;73.82
79077;BME280;68477;42.698;23.342;2023-05-29T12:46:24;95179.16;;;18.46;75.03
79077;BME280;68477;42.698;23.342;2023-05-29T12:48:55;95184.75;;;18.56;73.94
79077;BME280;68477;42.698;23.342;2023-05-29T12:51:27;95181.59;;;18.66;74.24
79077;BME280;68477;42.698;23.342;2023-05-29T12:53:53;95172.84;;;18.77;75.37
79077;BME280;68477;42.698;23.342;2023-05-29T12:56:23;95175.94;;;18.56;75.10
79077;BME280;68477;42.698;23.342;2023-05-29T12:58:50;95175.19;;;18.85;75.97
79077;BME280;68477;42.698;23.342;2023-05-29T13:01:16;95172.84;;;19.07;73.88
79077;BME280;68477;42.698;23.342;2023-05-29T13:03:41;95164.84;;;19.49;68.97
79077;BME280;68477;42.698;23.342;2023-05-29T13:06:07;95174.63;;;20.14;71.12
79077;BME280;68477;42.698;23.342;2023-05-29T13:08:32;95162.84;;;20.73;65.48
79077;BME280;68477;42.698;23.342;2023-05-29T13:10:58;95172.59;;;21.08;65.62
79077;BME280;68477;42.698;23.342;2023-05-29T13:13:23;95166.94;;;21.66;60.27
79077;BME280;68477;42.698;23.342;2023-05-29T13:15:49;95167.00;;;21.71;58.54